Time;durP1;ratioP1;P1;durP2;ratioP2;P2;SDS_P1;SDS_P2;PMS_P1;PMS_P2;Temp;Humidity;BMP_temperature;BMP_pressure;BME280_temperature;BME280_humidity;BME280_pressure;Samples;Min_cycle;Max_cycle;Signal;HPM_P1;HPM_P2
2023/05/25 00:00:37;;;;;;;;;;;;;;;17.66;100.00;99586.25;5019411;28;20008;-73
2023/05/25 00:03:02;;;;;;;;;;;;;;;17.70;100.00;99591.00;5018960;28;19964;-73
2023/05/25 00:05:28;;;;;;;;;;;;;;;17.73;100.00;99587.16;5022469;28;19917;-74
2023/05/25 00:07:56;;;;;;;;;;;;;;;17.74;100.00;99580.78;5022679;28;19921;-74
2023/05/25 00:10:21;;;;;;;;;;;;;;;17.70;100.00;99574.16;5023152;28;20386;-73
2023/05/25 00:12:47;;;;;;;;;;;;;;;17.70;100.00;99568.81;5021368;28;19917;-73
2023/05/25 00:15:12;;;;;;;;;;;;;;;17.67;100.00;99566.56;5019810;28;19917;-75
2023/05/25 00:17:39;;;;;;;;;;;;;;;17.64;100.00;99561.56;5022933;28;19917;-75
2023/05/25 00:20:08;;;;;;;;;;;;;;;17.62;100.00;99560.91;5022343;28;19924;-75
2023/05/25 00:22:36;;;;;;;;;;;;;;;17.59;100.00;99562.09;5021123;28;19970;-75
2023/05/25 00:25:02;;;;;;;;;;;;;;;17.56;100.00;99560.63;5016148;28;19944;-75
2023/05/25 00:27:28;;;;;;;;;;;;;;;17.56;100.00;99562.47;5020031;28;20002;-74
2023/05/25 00:29:53;;;;;;;;;;;;;;;17.52;100.00;99564.69;5021175;28;20332;-74
2023/05/25 00:32:19;;;;;;;;;;;;;;;17.51;100.00;99560.38;5022708;28;19928;-74
2023/05/25 00:34:46;;;;;;;;;;;;;;;17.51;100.00;99555.03;5019545;28;19924;-75
2023/05/25 00:37:11;;;;;;;;;;;;;;;17.49;100.00;99557.09;5019226;28;20298;-75
2023/05/25 00:39:36;;;;;;;;;;;;;;;17.50;100.00;99548.03;5020656;28;19918;-75
2023/05/25 00:42:02;;;;;;;;;;;;;;;17.49;100.00;99546.41;5021380;28;19917;-75
2023/05/25 00:44:27;;;;;;;;;;;;;;;17.49;100.00;99551.75;5019991;28;19921;-74
2023/05/25 00:46:52;;;;;;;;;;;;;;;17.44;100.00;99562.13;5020932;28;19913;-74
2023/05/25 00:49:18;;;;;;;;;;;;;;;17.45;100.00;99555.78;5022414;28;19918;-75
2023/05/25 00:51:45;;;;;;;;;;;;;;;17.43;100.00;99565.00;5016466;28;20321;-74
2023/05/25 00:54:15;;;;;;;;;;;;;;;17.41;100.00;99569.69;5021262;28;19921;-75
2023/05/25 00:56:52;;;;;;;;;;;;;;;17.40;100.00;99571.53;5022275;28;19918;-74
2023/05/25 00:59:23;;;;;;;;;;;;;;;17.39;100.00;99574.38;5015640;28;19956;-74
2023/05/25 01:01:52;;;;;;;;;;;;;;;17.40;100.00;99576.84;5015866;28;19952;-75
2023/05/25 01:04:20;;;;;;;;;;;;;;;17.36;100.00;99578.25;5019035;28;19917;-75
2023/05/25 01:06:47;;;;;;;;;;;;;;;17.28;100.00;99574.84;5028081;28;19944;-75
2023/05/25 01:09:15;;;;;;;;;;;;;;;17.26;100.00;99576.88;5019285;28;19975;-75
2023/05/25 01:11:41;;;;;;;;;;;;;;;17.25;100.00;99575.22;5035944;28;20397;-75
2023/05/25 01:14:07;;;;;;;;;;;;;;;17.28;100.00;99578.34;5020076;28;19924;-74
2023/05/25 01:16:33;;;;;;;;;;;;;;;17.29;100.00;99576.50;5021627;28;19917;-75
2023/05/25 01:19:00;;;;;;;;;;;;;;;17.33;100.00;99578.59;5018686;28;19921;-75
2023/05/25 01:21:25;;;;;;;;;;;;;;;17.34;100.00;99574.09;5022402;28;19926;-75
2023/05/25 01:23:57;;;;;;;;;;;;;;;17.34;100.00;99580.25;5021710;28;19917;-75
2023/05/25 01:26:25;;;;;;;;;;;;;;;17.38;100.00;99584.19;5021846;28;19967;-74
2023/05/25 01:28:51;;;;;;;;;;;;;;;17.36;100.00;99582.75;5023933;28;19918;-75
2023/05/25 01:31:19;;;;;;;;;;;;;;;17.35;100.00;99581.91;5024845;28;19921;-75
2023/05/25 01:33:45;;;;;;;;;;;;;;;17.38;100.00;99581.53;5023352;28;20374;-75
2023/05/25 01:36:11;;;;;;;;;;;;;;;17.38;100.00;99586.88;5025401;28;20094;-75
2023/05/25 01:38:37;;;;;;;;;;;;;;;17.38;100.00;99580.72;5021870;28;20052;-75
2023/05/25 01:41:02;;;;;;;;;;;;;;;17.36;100.00;99583.59;5025841;28;19971;-75
2023/05/25 01:43:28;;;;;;;;;;;;;;;17.38;100.00;99586.88;5024588;28;19917;-74
2023/05/25 01:46:05;;;;;;;;;;;;;;;17.39;100.00;99582.38;5022258;28;19917;-75
2023/05/25 01:48:36;;;;;;;;;;;;;;;17.38;100.00;99586.88;5018812;28;19917;-75
2023/05/25 01:51:22;;;;;;;;;;;;;;;17.34;100.00;99580.25;5017703;28;19917;-75
2023/05/25 01:53:51;;;;;;;;;;;;;;;17.34;100.00;99585.59;5001506;28;19917;-75
2023/05/25 01:56:18;;;;;;;;;;;;;;;17.34;100.00;99580.25;5022899;28;19953;-75
2023/05/25 01:58:45;;;;;;;;;;;;;;;17.33;100.00;99573.28;5023640;28;19917;-75
2023/05/25 02:01:12;;;;;;;;;;;;;;;17.31;100.00;99575.31;5023751;28;20373;-75
2023/05/25 02:03:39;;;;;;;;;;;;;;;17.28;100.00;99570.34;5023148;28;19944;-75
2023/05/25 02:06:06;;;;;;;;;;;;;;;17.25;100.00;99576.06;5020301;28;19924;-75
2023/05/25 02:08:33;;;;;;;;;;;;;;;17.24;100.00;99574.41;5017364;28;20377;-75
2023/05/25 02:11:00;;;;;;;;;;;;;;;17.22;100.00;99573.75;5028081;22;19928;-74
2023/05/25 02:13:25;;;;;;;;;;;;;;;17.22;100.00;99571.06;5000902;28;19937;-74
2023/05/25 02:15:51;;;;;;;;;;;;;;;17.20;100.00;99573.09;5002994;28;20008;-74
2023/05/25 02:18:17;;;;;;;;;;;;;;;17.18;100.00;99580.47;5001537;28;19918;-73
2023/05/25 02:20:43;;;;;;;;;;;;;;;17.17;100.00;99589.47;5002122;28;20376;-75
2023/05/25 02:23:09;;;;;;;;;;;;;;;17.15;100.00;99586.16;5003601;28;20338;-74
2023/05/25 02:25:36;;;;;;;;;;;;;;;17.13;100.00;99589.03;5000913;28;20004;-74
2023/05/25 02:28:01;;;;;;;;;;;;;;;17.12;100.00;99586.53;5003964;28;20016;-74
2023/05/25 02:30:27;;;;;;;;;;;;;;;17.11;100.00;99591.03;5000771;28;20382;-74
2023/05/25 02:32:55;;;;;;;;;;;;;;;17.10;100.00;99588.53;5003281;28;19957;-74
2023/05/25 02:35:21;;;;;;;;;;;;;;;17.08;100.00;99595.91;5001758;28;19948;-74
2023/05/25 02:37:46;;;;;;;;;;;;;;;17.07;100.00;99591.59;5001116;28;19922;-74
2023/05/25 02:40:13;;;;;;;;;;;;;;;17.06;100.00;99592.59;5002728;28;19917;-74
2023/05/25 02:42:38;;;;;;;;;;;;;;;17.03;100.00;99591.13;5001012;28;19918;-74
2023/05/25 02:45:05;;;;;;;;;;;;;;;17.04;100.00;99589.28;5003113;28;20314;-75
2023/05/25 02:47:30;;;;;;;;;;;;;;;17.03;100.00;99587.63;5000404;28;19918;-73
2023/05/25 02:49:56;;;;;;;;;;;;;;;17.01;100.00;99584.31;5004575;28;19940;-75
2023/05/25 02:52:21;;;;;;;;;;;;;;;16.99;100.00;99586.34;5001674;28;19924;-75
2023/05/25 02:54:47;;;;;;;;;;;;;;;16.95;100.00;99585.06;5001736;28;20286;-75
2023/05/25 02:57:19;;;;;;;;;;;;;;;16.93;100.00;99581.75;5001700;28;19917;-75
2023/05/25 02:59:45;;;;;;;;;;;;;;;16.90;100.00;99582.13;5001314;28;19965;-75
2023/05/25 03:02:11;;;;;;;;;;;;;;;16.87;100.00;99587.78;5002538;28;20433;-75
2023/05/25 03:04:38;;;;;;;;;;;;;;;16.84;100.00;99585.50;5001699;28;20004;-75
2023/05/25 03:07:03;;;;;;;;;;;;;;;16.81;100.00;99594.69;5019893;28;19913;-75
2023/05/25 03:09:29;;;;;;;;;;;;;;;16.77;100.00;99594.22;5000059;28;20056;-75
2023/05/25 03:11:54;;;;;;;;;;;;;;;16.73;100.00;99587.59;5002798;28;19972;-75
2023/05/25 03:14:20;;;;;;;;;;;;;;;16.71;100.00;99586.97;5000927;28;19926;-75
2023/05/25 03:16:55;;;;;;;;;;;;;;;16.71;100.00;99586.97;5002222;28;20022;-75
2023/05/25 03:19:22;;;;;;;;;;;;;;;16.68;100.00;99589.97;5000659;28;20384;-75
2023/05/25 03:21:47;;;;;;;;;;;;;;;16.65;100.00;99593.00;5002593;28;19917;-75
2023/05/25 03:24:12;;;;;;;;;;;;;;;16.61;100.00;99594.34;5001995;28;20093;-74
2023/05/25 03:26:38;;;;;;;;;;;;;;;16.60;100.00;99595.38;4999940;28;20382;-75
2023/05/25 03:29:07;;;;;;;;;;;;;;;16.58;100.00;99601.88;5003112;28;20349;-75
2023/05/25 03:31:33;;;;;;;;;;;;;;;16.53;100.00;99594.41;4999300;28;19976;-75
2023/05/25 03:33:58;;;;;;;;;;;;;;;16.54;100.00;99600.56;4983031;28;20378;-75
2023/05/25 03:36:29;;;;;;;;;;;;;;;16.54;100.00;99603.25;5000427;28;19917;-75
2023/05/25 03:38:55;;;;;;;;;;;;;;;16.54;100.00;99609.41;5001945;28;19917;-75
2023/05/25 03:41:20;;;;;;;;;;;;;;;16.53;100.00;99602.41;5003935;28;19921;-75
2023/05/25 03:43:46;;;;;;;;;;;;;;;16.53;100.00;99606.91;5002411;28;19917;-75
2023/05/25 03:46:11;;;;;;;;;;;;;;;16.52;100.00;99611.41;5002714;28;19971;-75
2023/05/25 03:48:37;;;;;;;;;;;;;;;16.48;100.00;99610.13;5002179;28;19924;-75
2023/05/25 03:51:03;;;;;;;;;;;;;;;16.48;100.00;99615.44;4996100;28;19924;-75
2023/05/25 03:53:28;;;;;;;;;;;;;;;16.47;100.00;99621.78;4986071;28;20016;-75
2023/05/25 03:55:54;;;;;;;;;;;;;;;16.46;100.00;99622.78;5001624;28;19940;-75
2023/05/25 03:58:19;;;;;;;;;;;;;;;16.37;100.00;99629.19;5017724;28;19960;-75
2023/05/25 04:00:47;;;;;;;;;;;;;;;16.32;100.00;99634.19;5004050;28;19925;-75
2023/05/25 04:03:13;;;;;;;;;;;;;;;16.25;100.00;99631.44;5000725;28;20012;-75
2023/05/25 04:05:38;;;;;;;;;;;;;;;16.23;100.00;99633.44;4999944;28;20012;-75
2023/05/25 04:08:05;;;;;;;;;;;;;;;16.19;100.00;99626.81;5003399;28;19917;-75
2023/05/25 04:10:33;;;;;;;;;;;;;;;16.16;100.00;99631.66;4995697;28;19922;-75
2023/05/25 04:13:00;;;;;;;;;;;;;;;16.10;100.00;99629.69;4998899;28;19918;-75
2023/05/25 04:15:26;;;;;;;;;;;;;;;16.09;100.00;99626.19;4999737;28;20035;-75
2023/05/25 04:17:58;;;;;;;;;;;;;;;16.11;100.00;99634.84;5016769;28;20283;-75
2023/05/25 04:20:24;;;;;;;;;;;;;;;16.10;100.00;99637.66;5003325;28;19924;-75
2023/05/25 04:22:49;;;;;;;;;;;;;;;16.11;100.00;99648.16;5000212;28;19975;-75
2023/05/25 04:25:15;;;;;;;;;;;;;;;16.13;100.00;99642.66;5000848;28;19921;-75
2023/05/25 04:27:41;;;;;;;;;;;;;;;16.16;100.00;99637.81;5002022;28;20270;-74
2023/05/25 04:30:09;;;;;;;;;;;;;;;16.21;100.00;99647.91;4995007;28;20280;-75
2023/05/25 04:32:53;;;;;;;;;;;;;;;16.24;100.00;99650.25;5001898;28;20350;-75
2023/05/25 04:35:31;;;;;;;;;;;;;;;16.25;100.00;99649.25;5001299;28;19918;-75
2023/05/25 04:37:56;;;;;;;;;;;;;;;16.28;100.00;99643.53;4998779;28;20328;-75
2023/05/25 04:40:23;;;;;;;;;;;;;;;16.30;100.00;99649.53;5000919;28;19990;-75
2023/05/25 04:42:48;;;;;;;;;;;;;;;16.32;100.00;99664.31;4999763;28;20658;-75
2023/05/25 04:45:20;;;;;;;;;;;;;;;16.30;100.00;99652.19;5000350;28;19917;-75
2023/05/25 04:47:46;;;;;;;;;;;;;;;16.25;100.00;99663.38;5001603;28;20293;-75
2023/05/25 04:50:11;;;;;;;;;;;;;;;16.20;100.00;99664.91;5015022;28;19917;-74
2023/05/25 04:52:37;;;;;;;;;;;;;;;16.23;100.00;99664.56;4999829;28;20016;-75
2023/05/25 04:55:02;;;;;;;;;;;;;;;16.27;100.00;99663.19;5001027;28;19922;-74
2023/05/25 04:57:31;;;;;;;;;;;;;;;16.29;100.00;99669.16;4997647;28;19921;-75
2023/05/25 04:59:57;;;;;;;;;;;;;;;16.33;100.00;99673.13;5001443;28;20264;-75
2023/05/25 05:02:23;;;;;;;;;;;;;;;16.38;100.00;99673.41;4998465;28;19925;-75
2023/05/25 05:04:52;;;;;;;;;;;;;;;16.43;100.00;99676.41;5015806;28;19918;-75
2023/05/25 05:07:20;;;;;;;;;;;;;;;16.43;100.00;99681.75;4997929;28;19918;-75
2023/05/25 05:09:46;;;;;;;;;;;;;;;16.48;100.00;99690.03;4999683;28;19918;-74
2023/05/25 05:12:11;;;;;;;;;;;;;;;16.52;100.00;99688.66;4998403;28;19917;-75
2023/05/25 05:14:40;;;;;;;;;;;;;;;16.53;100.00;99698.31;5000775;28;19957;-75
2023/05/25 05:17:06;;;;;;;;;;;;;;;16.59;100.00;99692.31;4998581;28;19929;-74
2023/05/25 05:19:32;;;;;;;;;;;;;;;16.62;100.00;99707.91;5000536;28;20278;-75
2023/05/25 05:21:58;;;;;;;;;;;;;;;16.70;100.00;99712.38;5000762;28;19964;-76
2023/05/25 05:24:26;;;;;;;;;;;;;;;16.77;100.00;99707.97;5015265;28;20362;-74
2023/05/25 05:26:51;;;;;;;;;;;;;;;16.83;100.00;99715.25;4981468;28;19945;-75
2023/05/25 05:29:18;;;;;;;;;;;;;;;16.85;100.00;99717.75;4999606;28;19937;-76
2023/05/25 05:31:44;;;;;;;;;;;;;;;16.88;100.00;99715.56;4998099;28;19991;-75
2023/05/25 05:34:09;;;;;;;;;;;;;;;16.93;100.00;99723.84;4999706;28;19926;-75
2023/05/25 05:36:36;;;;;;;;;;;;;;;16.96;100.00;99723.50;4997990;28;19918;-75
2023/05/25 05:39:02;;;;;;;;;;;;;;;16.97;100.00;99726.97;4993508;28;19985;-75
2023/05/25 05:41:27;;;;;;;;;;;;;;;16.95;100.00;99729.00;5000377;28;19932;-75
2023/05/25 05:43:53;;;;;;;;;;;;;;;16.95;100.00;99734.34;4999027;28;19925;-74
2023/05/25 05:46:19;;;;;;;;;;;;;;;17.01;100.00;99729.13;4998251;28;20374;-75
2023/05/25 05:48:44;;;;;;;;;;;;;;;17.07;100.00;99733.72;5001601;28;19917;-75
2023/05/25 05:51:10;;;;;;;;;;;;;;;17.10;100.00;99732.53;4998746;28;19929;-75
2023/05/25 05:53:36;;;;;;;;;;;;;;;17.15;100.00;99740.81;5000009;28;19929;-73
2023/05/25 05:56:02;;;;;;;;;;;;;;;17.20;100.00;99741.09;5000824;28;19917;-74
2023/05/25 05:58:28;;;;;;;;;;;;;;;17.23;100.00;99742.56;4998121;28;19921;-74
2023/05/25 06:00:55;;;;;;;;;;;;;;;17.25;100.00;99741.41;5000561;28;19918;-75
2023/05/25 06:03:23;;;;;;;;;;;;;;;17.23;100.00;99740.75;4998929;28;19921;-74
2023/05/25 06:05:49;;;;;;;;;;;;;;;17.27;100.00;99744.69;4998793;28;19917;-74
2023/05/25 06:08:16;;;;;;;;;;;;;;;17.31;100.00;99756.69;4998225;28;20698;-74
2023/05/25 06:10:41;;;;;;;;;;;;;;;17.38;100.00;99749.59;5000823;28;19964;-75
2023/05/25 06:13:07;;;;;;;;;;;;;;;17.45;100.00;99753.19;4998549;28;19917;-76
2023/05/25 06:15:32;;;;;;;;;;;;;;;17.51;100.00;99763.13;5006086;28;20021;-74
2023/05/25 06:17:59;;;;;;;;;;;;;;;17.54;100.00;99753.94;5001476;28;19924;-76
2023/05/25 06:20:25;;;;;;;;;;;;;;;17.53;100.00;99761.13;5004844;28;20005;-75
2023/05/25 06:22:50;;;;;;;;;;;;;;;17.57;100.00;99772.25;5022774;28;20429;-75
2023/05/25 06:25:16;;;;;;;;;;;;;;;17.59;100.00;99759.56;5003932;28;19918;-75
2023/05/25 06:27:42;;;;;;;;;;;;;;;17.62;100.00;99753.88;5002122;28;19949;-75
2023/05/25 06:30:07;;;;;;;;;;;;;;;17.67;100.00;99766.69;5003750;28;20382;-74
2023/05/25 06:32:34;;;;;;;;;;;;;;;17.75;100.00;99769.25;4984988;28;19996;-75
2023/05/25 06:34:59;;;;;;;;;;;;;;;17.79;100.00;99770.56;5001814;28;20378;-75
2023/05/25 06:37:33;;;;;;;;;;;;;;;17.86;100.00;99776.81;4987423;28;19925;-75
2023/05/25 06:40:04;;;;;;;;;;;;;;;17.88;100.00;99780.13;5000186;28;20366;-74
2023/05/25 06:42:29;;;;;;;;;;;;;;;17.85;100.00;99786.66;5003534;28;19917;-74
2023/05/25 06:44:55;;;;;;;;;;;;;;;17.86;100.00;99782.97;5001729;28;19972;-77
2023/05/25 06:47:20;;;;;;;;;;;;;;;17.85;100.00;99785.81;5002274;28;20017;-74
2023/05/25 06:49:46;;;;;;;;;;;;;;;17.86;100.00;99795.50;5002669;28;20333;-74
2023/05/25 06:52:11;;;;;;;;;;;;;;;17.87;100.00;99805.16;5002207;28;20314;-74
2023/05/25 06:54:37;;;;;;;;;;;;;;;17.88;100.00;99809.50;5004622;28;20087;-74
2023/05/25 06:57:02;;;;;;;;;;;;;;;17.87;100.00;99815.84;4999830;28;19917;-74
2023/05/25 06:59:27;;;;;;;;;;;;;;;17.80;100.00;99820.25;5004300;28;19921;-76
2023/05/25 07:01:54;;;;;;;;;;;;;;;17.59;100.00;99816.44;5001444;28;20040;-75
2023/05/25 07:04:21;;;;;;;;;;;;;;;17.64;100.00;99815.09;4999579;28;19922;-74
2023/05/25 07:06:47;;;;;;;;;;;;;;;17.67;100.00;99820.88;5003603;28;19925;-74
2023/05/25 07:09:12;;;;;;;;;;;;;;;17.71;100.00;99826.69;5004627;28;19918;-74
2023/05/25 07:11:37;;;;;;;;;;;;;;;17.73;100.00;99819.34;5001510;28;19917;-74
2023/05/25 07:14:03;;;;;;;;;;;;;;;17.74;100.00;99826.31;5006246;28;19917;-73
2023/05/25 07:16:28;;;;;;;;;;;;;;;17.78;100.00;99822.28;5001662;28;19972;-75
2023/05/25 07:18:53;;;;;;;;;;;;;;;17.86;100.00;99832.88;5002774;28;19960;-75
2023/05/25 07:21:19;;;;;;;;;;;;;;;17.94;100.00;99838.97;5001622;28;19921;-76
2023/05/25 07:23:44;;;;;;;;;;;;;;;18.03;100.00;99842.34;4998943;28;19917;-75
2023/05/25 07:26:10;;;;;;;;;;;;;;;18.09;100.00;99848.81;5001692;28;19918;-75
2023/05/25 07:28:35;;;;;;;;;;;;;;;18.17;100.00;99844.22;5007280;28;19971;-74
2023/05/25 07:31:00;;;;;;;;;;;;;;;18.28;100.00;99846.41;5000943;28;19917;-74
2023/05/25 07:33:26;;;;;;;;;;;;;;;18.34;100.00;99845.69;5003460;28;20021;-74
2023/05/25 07:35:51;;;;;;;;;;;;;;;18.39;100.00;99850.47;5003014;28;19968;-75
2023/05/25 07:38:17;;;;;;;;;;;;;;;18.34;100.00;99852.84;4999763;28;20400;-76
2023/05/25 07:40:43;;;;;;;;;;;;;;;18.23;100.00;99854.16;5001845;28;19919;-74
2023/05/25 07:43:08;;;;;;;;;;;;;;;18.20;100.00;99859.06;5000254;28;19918;-75
2023/05/25 07:45:34;;;;;;;;;;;;;;;18.25;100.00;99852.16;5001939;28;19920;-75
2023/05/25 07:47:59;;;;;;;;;;;;;;;18.30;100.00;99854.25;5005241;28;19917;-75
2023/05/25 07:50:25;;;;;;;;;;;;;;;18.37;100.00;99861.34;5001184;28;20708;-75
2023/05/25 07:52:50;;;;;;;;;;;;;;;18.52;100.00;99868.50;5002038;28;19969;-76
2023/05/25 07:55:16;;;;;;;;;;;;;;;18.63;100.00;99865.38;5002067;28;19917;-75
2023/05/25 07:57:41;;;;;;;;;;;;;;;18.70;100.00;99874.31;4999710;28;19932;-76
2023/05/25 08:00:07;;;;;;;;;;;;;;;18.69;100.00;99878.00;5002266;28;19917;-75
2023/05/25 08:02:38;;;;;;;;;;;;;;;18.72;100.00;99886.50;4997355;28;20388;-75
2023/05/25 08:05:04;;;;;;;;;;;;;;;18.78;100.00;99880.41;5001802;28;20398;-76
2023/05/25 08:07:33;;;;;;;;;;;;;;;18.83;100.00;99887.03;5006324;28;19928;-75
2023/05/25 08:09:58;;;;;;;;;;;;;;;18.84;100.00;99892.19;5000613;28;19993;-75
2023/05/25 08:12:24;;;;;;;;;;;;;;;18.83;100.00;99887.03;5002290;28;19921;-75
2023/05/25 08:14:49;;;;;;;;;;;;;;;18.91;100.00;99890.41;5002794;28;19968;-75
2023/05/25 08:17:15;;;;;;;;;;;;;;;18.97;100.00;99889.66;4999076;28;19918;-75
2023/05/25 08:19:40;;;;;;;;;;;;;;;19.05;100.00;99892.22;4997862;28;19940;-74
2023/05/25 08:22:05;;;;;;;;;;;;;;;19.12;100.00;99890.44;5002723;28;19918;-74
2023/05/25 08:24:31;;;;;;;;;;;;;;;19.18;100.00;99892.38;5001309;28;20290;-75
2023/05/25 08:26:56;;;;;;;;;;;;;;;19.19;100.00;99904.72;5002870;28;20396;-75
2023/05/25 08:29:21;;;;;;;;;;;;;;;19.21;100.00;99908.03;5000546;28;19925;-75
2023/05/25 08:31:48;;;;;;;;;;;;;;;19.28;100.00;99901.91;4999795;28;19988;-73
2023/05/25 08:34:14;;;;;;;;;;;;;;;19.36;100.00;99917.84;5002130;28;20397;-75
2023/05/25 08:36:40;;;;;;;;;;;;;;;19.48;100.00;99919.03;4999239;28;19922;-74
2023/05/25 08:39:06;;;;;;;;;;;;;;;19.49;100.00;99926.06;4999238;28;20301;-75
2023/05/25 08:41:34;;;;;;;;;;;;;;;19.55;100.00;99925.28;4996478;28;19921;-75
2023/05/25 08:44:05;;;;;;;;;;;;;;;19.42;100.00;99930.47;5000770;28;19921;-75
2023/05/25 08:46:30;;;;;;;;;;;;;;;19.56;100.00;99942.97;5003520;28;19943;-75
2023/05/25 08:49:22;;;;;;;;;;;;;;;19.64;100.00;99940.19;5001671;28;20382;-75
2023/05/25 08:51:49;;;;;;;;;;;;;;;19.68;100.00;99941.47;4997486;28;19918;-75
2023/05/25 08:54:16;;;;;;;;;;;;;;;19.62;100.00;99931.50;5001883;28;20011;-75
2023/05/25 08:56:53;;;;;;;;;;;;;;;19.73;100.00;99936.38;4997531;28;19925;-75
2023/05/25 08:59:27;;;;;;;;;;;;;;;19.84;100.00;99935.03;5001235;28;19926;-75
2023/05/25 09:01:57;;;;;;;;;;;;;;;20.00;100.00;99935.56;5002337;28;20394;-75
2023/05/25 09:04:23;;;;;;;;;;;;;;;20.14;100.00;99941.03;5000224;28;19918;-75
2023/05/25 09:06:49;;;;;;;;;;;;;;;20.28;100.00;99938.22;5001364;28;19918;-75
2023/05/25 09:09:15;;;;;;;;;;;;;;;20.45;100.00;99949.50;5001803;28;20271;-75
2023/05/25 09:11:41;;;;;;;;;;;;;;;20.33;100.00;99945.72;4999532;28;19976;-75
2023/05/25 09:14:07;;;;;;;;;;;;;;;20.21;100.00;99952.59;5004061;28;19918;-75
2023/05/25 09:16:32;;;;;;;;;;;;;;;20.26;100.00;99960.91;4994796;28;19959;-75
2023/05/25 09:18:58;;;;;;;;;;;;;;;20.33;100.00;99967.97;5001144;28;19917;-75
2023/05/25 09:21:24;;;;;;;;;;;;;;;20.48;100.00;99965.22;5000293;28;19957;-75
2023/05/25 09:23:50;;;;;;;;;;;;;;;20.33;100.00;99961.78;5002856;28;20353;-75
2023/05/25 09:26:15;;;;;;;;;;;;;;;20.45;100.00;99960.22;5000213;28;19972;-75
2023/05/25 09:28:48;;;;;;;;;;;;;;;20.54;100.00;99960.91;5000704;28;20305;-75
2023/05/25 09:31:16;;;;;;;;;;;;;;;20.57;100.00;99961.34;4999469;28;19918;-75
2023/05/25 09:33:42;;;;;;;;;;;;;;;20.66;100.00;99959.34;5001755;28;19918;-75
2023/05/25 09:36:08;;;;;;;;;;;;;;;20.74;100.00;99965.34;4994423;28;19917;-75
2023/05/25 09:38:33;;;;;;;;;;;;;;;20.80;100.00;99969.09;5001150;28;19940;-75
2023/05/25 09:40:58;;;;;;;;;;;;;;;20.74;100.00;99968.03;5001114;28;19964;-76
2023/05/25 09:43:24;;;;;;;;;;;;;;;20.63;100.00;99965.06;4999112;28;19922;-75
2023/05/25 09:45:52;;;;;;;;;;;;;;;20.63;100.00;99971.28;5000590;28;19926;-75
2023/05/25 09:48:18;;;;;;;;;;;;;;;20.65;100.00;99977.28;5004435;28;20350;-75
2023/05/25 09:50:43;;;;;;;;;;;;;;;20.66;100.00;99968.22;5003067;28;19921;-75
2023/05/25 09:53:09;;;;;;;;;;;;;;;20.66;100.00;99970.06;5006460;28;19932;-75
2023/05/25 09:55:35;;;;;;;;;;;;;;;20.66;100.00;99973.56;4998758;28;20000;-76
2023/05/25 09:58:01;;;;;;;;;;;;;;;20.58;100.00;99968.34;5005041;28;19924;-75
2023/05/25 10:00:26;;;;;;;;;;;;;;;20.49;100.00;99974.91;5005071;28;20000;-74
2023/05/25 10:02:52;;;;;;;;;;;;;;;20.56;100.00;99978.44;5002674;28;19925;-75
2023/05/25 10:05:17;;;;;;;;;;;;;;;20.74;100.00;99970.72;5003477;28;19972;-77
2023/05/25 10:07:43;;;;;;;;;;;;;;;20.82;100.00;99978.59;5001138;28;20305;-76
2023/05/25 10:10:10;;;;;;;;;;;;;;;20.98;100.00;99981.97;5002362;28;19965;-75
2023/05/25 10:12:36;;;;;;;;;;;;;;;20.92;100.00;99983.59;5001424;28;19925;-73
2023/05/25 10:15:02;;;;;;;;;;;;;;;21.09;100.00;99976.03;4998461;28;19917;-74
2023/05/25 10:17:30;;;;;;;;;;;;;;;21.14;100.00;99984.34;5003819;28;19992;-75
2023/05/25 10:19:59;;;;;;;;;;;;;;;21.15;100.00;99972.56;5004331;28;19921;-75
2023/05/25 10:22:28;;;;;;;;;;;;;;;20.99;100.00;99967.53;5002031;28;19917;-74
2023/05/25 10:25:06;;;;;;;;;;;;;;;20.78;100.00;99966.63;5003550;28;19921;-75
2023/05/25 10:27:35;;;;;;;;;;;;;;;20.53;100.00;99968.13;5005035;28;19928;-76
2023/05/25 10:30:01;;;;;;;;;;;;;;;20.46;100.00;99961.88;5001161;28;19924;-76
2023/05/25 10:32:27;;;;;;;;;;;;;;;20.21;100.00;99957.97;5001864;28;19925;-76
2023/05/25 10:34:52;;;;;;;;;;;;;;;20.13;100.00;99960.81;5000796;28;19917;-75
2023/05/25 10:37:18;;;;;;;;;;;;;;;20.02;100.00;99954.97;5003455;28;19917;-76
2023/05/25 10:39:44;;;;;;;;;;;;;;;20.01;100.00;99952.47;5004698;28;20437;-75
2023/05/25 10:42:11;;;;;;;;;;;;;;;19.98;100.00;99952.84;5002341;28;19960;-75
2023/05/25 10:44:37;;;;;;;;;;;;;;;19.84;100.00;99959.97;5001655;28;20031;-75
2023/05/25 10:47:03;;;;;;;;;;;;;;;19.86;100.00;99968.59;5005455;28;20413;-74
2023/05/25 10:49:32;;;;;;;;;;;;;;;19.82;100.00;99969.19;5003035;28;19925;-75
2023/05/25 10:52:07;;;;;;;;;;;;;;;19.75;100.00;99958.41;5001432;28;20378;-75
2023/05/25 10:54:35;;;;;;;;;;;;;;;19.78;100.00;99958.03;4998285;28;19952;-74
2023/05/25 10:57:07;;;;;;;;;;;;;;;19.77;100.00;99959.06;5002375;28;19928;-77
2023/05/25 10:59:32;;;;;;;;;;;;;;;19.78;100.00;99962.56;5001228;28;20305;-75
2023/05/25 11:02:04;;;;;;;;;;;;;;;19.76;100.00;99962.75;5001686;28;19979;-75
2023/05/25 11:04:33;;;;;;;;;;;;;;;19.78;100.00;99963.41;5001061;28;19960;-76
2023/05/25 11:07:01;;;;;;;;;;;;;;;19.71;100.00;99956.31;5003036;28;19913;-75
2023/05/25 11:09:35;;;;;;;;;;;;;;;19.67;100.00;99969.28;5001231;28;19987;-78
2023/05/25 11:12:02;;;;;;;;;;;;;;;19.75;100.00;99968.28;5001815;28;19922;-74
2023/05/25 11:14:28;;;;;;;;;;;;;;;19.78;100.00;99976.78;5004130;28;19926;-74
2023/05/25 11:17:03;;;;;;;;;;;;;;;19.81;100.00;99973.72;5002361;28;19925;-74
2023/05/25 11:19:37;;;;;;;;;;;;;;;19.80;100.00;99977.41;5003141;28;20378;-74
2023/05/25 11:22:11;;;;;;;;;;;;;;;19.80;100.00;99966.69;5016149;28;19917;-77
2023/05/25 11:24:37;;;;;;;;;;;;;;;19.79;100.00;99970.38;4997798;28;20052;-76
2023/05/25 11:27:04;;;;;;;;;;;;;;;19.74;100.00;99964.78;5004192;28;20444;-75
2023/05/25 11:29:30;;;;;;;;;;;;;;;19.70;100.00;99962.69;5000521;28;20263;-75
2023/05/25 11:31:56;;;;;;;;;;;;;;;19.58;100.00;99965.06;5000912;28;19917;-76
2023/05/25 11:34:25;;;;;;;;;;;;;;;19.51;100.00;99951.59;5002421;28;19925;-74
2023/05/25 11:37:02;;;;;;;;;;;;;;;19.35;100.00;99957.16;5000321;28;19947;-75
2023/05/25 11:39:30;;;;;;;;;;;;;;;19.15;100.00;99962.28;5000059;28;19928;-76
2023/05/25 11:42:00;;;;;;;;;;;;;;;18.97;100.00;99953.84;5003504;28;19940;-74
2023/05/25 11:44:30;;;;;;;;;;;;;;;18.81;100.00;99952.19;5004264;28;19925;-74
2023/05/25 11:46:56;;;;;;;;;;;;;;;18.82;100.00;99950.38;5002425;28;19917;-75
2023/05/25 11:49:22;;;;;;;;;;;;;;;18.84;100.00;99959.03;5001683;28;20433;-76
2023/05/25 11:51:48;;;;;;;;;;;;;;;18.76;100.00;99961.78;5002440;28;19913;-75
2023/05/25 11:54:23;;;;;;;;;;;;;;;18.73;100.00;99957.63;5000914;28;19928;-75
2023/05/25 11:56:48;;;;;;;;;;;;;;;18.73;100.00;99943.47;5001364;28;19925;-75
2023/05/25 11:59:14;;;;;;;;;;;;;;;18.73;100.00;99936.25;5002498;28;20354;-75
2023/05/25 12:01:40;;;;;;;;;;;;;;;18.81;100.00;99946.03;5001011;28;19944;-75
2023/05/25 12:04:09;;;;;;;;;;;;;;;18.93;100.00;99941.03;5003896;28;20325;-74
2023/05/25 12:06:37;;;;;;;;;;;;;;;19.03;100.00;99947.72;4997511;28;19925;-75
2023/05/25 12:09:05;;;;;;;;;;;;;;;19.11;100.00;99938.78;4996088;28;20436;-74
2023/05/25 12:11:32;;;;;;;;;;;;;;;19.22;100.00;99933.75;5002044;28;19921;-76
2023/05/25 12:13:58;;;;;;;;;;;;;;;19.31;100.00;99933.66;5000926;28;19937;-78
2023/05/25 12:16:23;;;;;;;;;;;;;;;19.42;100.00;99931.31;5002212;28;19918;-78
2023/05/25 12:18:50;;;;;;;;;;;;;;;19.53;100.00;99927.31;5002098;28;20004;-75
2023/05/25 12:21:15;;;;;;;;;;;;;;;19.60;100.00;99922.88;5000919;28;19918;-75
2023/05/25 12:23:41;;;;;;;;;;;;;;;19.68;100.00;99936.09;5002791;28;19936;-75
2023/05/25 12:26:13;;;;;;;;;;;;;;;19.75;100.00;99925.44;4998186;28;19917;-75
2023/05/25 12:28:39;;;;;;;;;;;;;;;19.81;100.00;99919.31;4997238;28;19917;-75
2023/05/25 12:31:24;;;;;;;;;;;;;;;19.83;100.00;99907.41;5003102;28;20005;-75
2023/05/25 12:34:02;;;;;;;;;;;;;;;19.87;100.00;99924.75;4999770;28;19922;-76